Friday, September 21, 2018, 6:10 PM EDT
Back to Local

KFVE, Northern Aroostook Regional

Location: Saint Agatha, ME, United States Lat: 47.283
Local Time: 6:10 PM EDT (22:10 GMT) Lon: -68.3
Time Zone: US/Eastern Elev: 987 ft

Show me the last for .
Show Decoded

2018-09-21 17:53 METAR KFVE 212153Z AUTO 17019G30KT 6SM -RA OVC009 12/09 A2979 RMK AO2 PK WND
                 17032/2122 RAB07 CIG 007V011 SLP089 P0001 T01170089 =
2018-09-21 17:48 METAR KFVE 212148Z AUTO 17018G30KT 6SM -RA OVC009 12/09 A2979 RMK AO2 PK WND
                 17032/2122 RAB07 CIG 007V013 P0001 =
2018-09-21 16:53 METAR KFVE 212053Z AUTO 17016G31KT 10SM OVC014 12/09 A2983 RMK AO2 PK WND
                 17035/2018 RAB1954E36 SLP106 P0010 60020 T01170089 56051 =
2018-09-21 16:32 METAR KFVE 212032Z AUTO 17018G35KT 10SM -RA OVC013 12/09 A2984 RMK AO2 PK WND
                 17035/2018 RAB1954 P0010 T01170089 =
2018-09-21 16:25 METAR KFVE 212025Z AUTO 17020G35KT 6SM -RA SCT011 OVC015 12/09 A2985 RMK AO2 PK
                 WND 17035/2018 RAB1954 P0010 T01170089 =
2018-09-21 16:19 METAR KFVE 212019Z AUTO 17020G35KT 2SM -RA BKN011 OVC018 12/09 A2984 RMK AO2 PK
                 WND 17035/2018 RAB1954 PRESFR P0010 T01170089 =
2018-09-21 16:08 METAR KFVE 212008Z AUTO 17018G31KT 1 1/4SM +RA OVC014 12/09 A2987 RMK AO2 PK WND
                 16032/1956 RAB1954 P0005 T01170089 =
2018-09-21 16:06 METAR KFVE 212006Z AUTO 17021G31KT 1 3/4SM RA BKN011 OVC015 12/09 A2987 RMK AO2
                 PK WND 16032/1956 RAB1954 P0003 T01170089 =
2018-09-21 16:03 METAR KFVE 212003Z AUTO 17020G32KT 3SM RA OVC015 12/09 A2987 RMK AO2 PK WND
                 16032/1956 RAB1954 P0001 T01170089 =
2018-09-21 15:53 METAR KFVE 211953Z AUTO 17018G31KT 10SM OVC013 12/09 A2988 RMK AO2 PK WND
                 17037/1943 RAE18 SLP120 P0001 T01220089 =
2018-09-21 15:15 METAR KFVE 211915Z AUTO 17019G28KT 10SM -RA BKN010 OVC017 12/09 A2991 RMK AO2 PK
                 WND 17028/1909 CIG 007V012 P0000 T01220094 =
2018-09-21 15:00 METAR KFVE 211900Z AUTO 17018G30KT 10SM -RA BKN008 OVC014 12/09 A2991 RMK AO2 PK
                 WND 15027/1854 CIG 005V012 P0000 T01220094 =
2018-09-21 14:53 METAR KFVE 211853Z AUTO 16021G33KT 5SM -RA SCT008 OVC012 12/09 A2991 RMK AO2 PK
                 WND 16033/1846 RAB1758 SLP130 P0009 T01220094 =
2018-09-21 14:50 METAR KFVE 211850Z AUTO 15022G33KT 3SM -RA SCT008 OVC012 12/09 A2991 RMK AO2 PK
                 WND 16033/1846 RAB1758 P0009 =
2018-09-21 14:46 METAR KFVE 211846Z AUTO 16025G33KT 2SM RA BR BKN008 OVC012 12/09 A2990 RMK AO2
                 PK WND 16033/1846 RAB1758 CIG 005V008 PRESFR P0009 T01170094 =
2018-09-21 14:39 METAR KFVE 211839Z AUTO 16023G32KT 1 1/2SM RA BR BKN008 OVC014 12/09 A2992 RMK
                 AO2 PK WND 16032/1832 RAB1758 CIG 005V012 PRESFR P0008 T01170094 =
2018-09-21 14:36 METAR KFVE 211836Z AUTO 16020G32KT 1 3/4SM RA BR BKN008 OVC014 12/09 A2993 RMK
                 AO2 PK WND 16032/1832 RAB1758 CIG 005V010 P0007 T01170094 =
2018-09-21 14:25 METAR KFVE 211825Z AUTO 16019G29KT 2 1/2SM RA BR FEW006 OVC013 12/09 A2996 RMK
                 AO2 PK WND 16029/1820 RAB1758 P0004 T01170094 =
2018-09-21 14:18 METAR KFVE 211818Z AUTO 16018G27KT 1 3/4SM RA BR BKN008 OVC016 12/09 A2997 RMK
                 AO2 PK WND 16028/1804 RAB1758 CIG 006V012 P0003 T01170094 =
2018-09-21 14:14 METAR KFVE 211814Z AUTO 17021G28KT 1 1/2SM RA BR SCT008 BKN013 OVC018 12/09
                 A2998 RMK AO2 PK WND 16028/1804 RAB1758 P0002 T01170094 =
2018-09-21 14:09 METAR KFVE 211809Z AUTO 16018G28KT 1 3/4SM -RA BKN008 OVC017 12/09 A2998 RMK AO2
                 PK WND 16028/1804 RAB1758 CIG 006V013 P0000 T01170089 =
2018-09-21 14:05 METAR KFVE 211805Z AUTO 16021G28KT 2 1/2SM -RA BKN010 OVC015 12/09 A2998 RMK AO2
                 PK WND 16028/1804 RAB1758 CIG 006V013 P0000 T01170089 =
2018-09-21 13:59 METAR KFVE 211759Z AUTO 16019G27KT 6SM -RA SCT008 OVC015 12/09 A2999 RMK AO2 PK
                 WND 15027/1758 RAB58 P0000 T01170089 =
2018-09-21 13:53 METAR KFVE 211753Z AUTO 16020G27KT 10SM BKN008 OVC015 12/09 A2999 RMK AO2 PK WND
                 16028/1724 RAE48 CIG 006V010 SLP158 P0002 60005 T01170094 10117 20078 56061 =
2018-09-21 12:53 METAR KFVE 211653Z AUTO 16017G25KT 5SM -RA BR OVC006 12/09 A3006 RMK AO2 PK WND
                 15026/1559 CIG 004V010 SLP181 P0003 T01170094 =
2018-09-21 12:00 METAR KFVE 211600Z AUTO 16018G26KT 10SM -RA OVC006 11/09 A3010 RMK AO2 PK WND
                 15026/1559 CIG 003V010 P0000 T01110089 =
2018-09-21 11:53 METAR KFVE 211553Z AUTO 16015KT 10SM -RA BKN005 OVC015 11/09 A3011 RMK AO2 RAB26
                 CIG 003V009 SLP198 P0000 T01110089 =
2018-09-21 11:11 METAR KFVE 211511Z AUTO 14012KT 10SM OVC005 11/08 A3015 RMK AO2 PRESFR T01060083
                 =
2018-09-21 10:53 METAR KFVE 211453Z AUTO 16010KT 10SM OVC004 11/08 A3018 RMK AO2 SLP221 T01060083
                 56024 =
2018-09-21 10:38 METAR KFVE 211438Z AUTO 15008KT 10SM OVC002 11/08 A3018 RMK AO2 T01060083 =
2018-09-21 10:30 METAR KFVE 211430Z AUTO 15010KT 2SM BR OVC002 11/08 A3018 RMK AO2 VIS 1V5
                 T01060083 =
2018-09-21 10:28 METAR KFVE 211428Z AUTO 16012KT 1 1/2SM BR OVC002 11/08 A3018 RMK AO2 VIS 3/4V5
                 T01060083 =
2018-09-21 09:53 METAR KFVE 211353Z AUTO 14009KT 1/2SM FG VV002 10/08 A3019 RMK AO2 SLP224
                 T01000078 =
2018-09-21 08:53 METAR KFVE 211253Z AUTO 16008KT M1/4SM FG VV002 09/07 A3022 RMK AO2 SLP237
                 T00890067 =
2018-09-21 07:53 METAR KFVE 211153Z AUTO 16008KT M1/4SM FG VV002 08/06 A3025 RMK AO2 SLP246 70002
                 T00780061 10078 20061 56005 =
2018-09-21 06:53 METAR KFVE 211053Z AUTO 11005KT M1/4SM FG VV002 06/04 A3025 RMK AO2 SLP246
                 T00610044 =
2018-09-21 05:53 METAR KFVE 210953Z AUTO 11005KT 1/4SM FG VV002 06/04 A3025 RMK AO2 SLP247
                 T00610044 =
2018-09-21 04:53 METAR KFVE 210853Z AUTO 12003KT 1/4SM FG VV002 06/04 A3026 RMK AO2 SLP251
                 T00610039 58007 =
2018-09-21 03:53 METAR KFVE 210753Z AUTO 11003KT 1/4SM FG VV002 06/04 A3027 RMK AO2 SLP253
                 T00610039 =
2018-09-21 02:53 METAR KFVE 210653Z AUTO 00000KT 1/4SM FG VV002 06/04 A3028 RMK AO2 SLP257
                 T00610044 =
2018-09-21 01:53 METAR KFVE 210553Z AUTO 16003KT 1/4SM FG VV001 07/04 A3029 RMK AO2 SLP258
                 T00670044 10111 20067 58004 =
2018-09-21 01:02 METAR KFVE 210502Z AUTO 00000KT 1/4SM FG VV002 09/07 A3029 RMK AO2 T00890067 =
2018-09-21 00:53 METAR KFVE 210453Z AUTO 00000KT 3/4SM HZ CLR 09/07 A3029 RMK AO2 SLP261
                 T00940067 401390072 =
2018-09-21 00:43 METAR KFVE 210443Z AUTO 00000KT 3/4SM BR CLR 09/07 A3029 RMK AO2 T00890067 =
2018-09-21 00:40 METAR KFVE 210440Z AUTO 00000KT 1 1/2SM HZ CLR 09/07 A3029 RMK AO2 VIS 3/4V5
                 T00940067 =
2018-09-21 00:35 METAR KFVE 210435Z AUTO 00000KT 2SM BR FEW002 09/07 A3029 RMK AO2 VIS 1/2V5
                 T00940072 =
2018-09-21 00:33 METAR KFVE 210433Z AUTO 00000KT 1 1/4SM BR FEW002 09/07 A3029 RMK AO2 T00940072
                 =
2018-09-21 00:06 METAR KFVE 210406Z AUTO 00000KT 3/4SM BR VV002 09/07 A3030 RMK AO2 T00890072 =
2018-09-21 00:04 METAR KFVE 210404Z AUTO 00000KT 1 1/2SM BR FEW002 09/07 A3030 RMK AO2 T00940072
                 =
2018-09-20 23:53 METAR KFVE 210353Z AUTO 00000KT 7SM CLR 09/07 A3030 RMK AO2 SLP263 T00940072 =
2018-09-20 23:40 METAR KFVE 210340Z AUTO 21003KT 1 1/2SM BR CLR 09/07 A3030 RMK AO2 T00940072 =
2018-09-20 22:53 METAR KFVE 210253Z AUTO 23004KT 10SM CLR 10/08 A3030 RMK AO2 SLP262 T01000078
                 51007 =
2018-09-20 21:53 METAR KFVE 210153Z AUTO 00000KT 10SM CLR 11/08 A3029 RMK AO2 SLP260 T01060078 =
2018-09-20 20:53 METAR KFVE 210053Z AUTO 00000KT 10SM CLR 11/07 A3029 RMK AO2 SLP259 T01060072 =
2018-09-20 19:53 METAR KFVE 202353Z AUTO 00000KT 10SM CLR 12/07 A3028 RMK AO2 SLP255 60001
                 T01170072 10139 20117 51012 =
2018-09-20 18:53 METAR KFVE 202253Z AUTO 00000KT 10SM FEW055 12/08 A3027 RMK AO2 SLP252 T01220078
                 =

Support USWX by starting your Amazon purchase here.